createdAt,value
2024-03-16T00:01:25.909Z,2
2024-03-16T00:07:37.421Z,1.8
2024-03-16T00:09:41.276Z,0.8
2024-03-16T00:13:51.806Z,2.7
2024-03-16T00:26:17.813Z,1.6
2024-03-16T00:28:21.650Z,1.7
2024-03-16T00:32:29.402Z,1.8
2024-03-16T00:34:33.274Z,2.5
2024-03-16T00:36:37.117Z,3.2
2024-03-16T00:38:40.952Z,2.8
2024-03-16T00:40:47.663Z,2
2024-03-16T00:42:51.537Z,2
2024-03-16T00:44:55.374Z,2.3
2024-03-16T00:45:58.773Z,2.4
2024-03-16T00:52:10.307Z,3.3
2024-03-16T00:56:20.782Z,2.9
2024-03-16T00:58:24.633Z,4.5
2024-03-16T01:00:28.507Z,3
2024-03-16T01:08:46.681Z,3.7
2024-03-16T01:14:58.220Z,3.3
2024-03-16T01:19:05.981Z,2.8
2024-03-16T01:21:09.758Z,3.1
2024-03-16T01:37:46.123Z,4.4
2024-03-16T01:45:00.956Z,4.1
2024-03-16T01:51:15.265Z,6.6
2024-03-16T01:59:30.601Z,3.5
2024-03-16T02:01:34.547Z,3.6
2024-03-16T02:03:38.290Z,3.9
2024-03-16T02:09:52.606Z,3.5
2024-03-16T02:11:56.428Z,3
2024-03-16T02:14:00.251Z,3.7
2024-03-16T02:20:15.042Z,3.8
2024-03-16T02:22:18.879Z,3.6
2024-03-16T02:28:30.405Z,3.4
2024-03-16T02:32:38.122Z,3.7
2024-03-16T02:34:44.727Z,3.6
2024-03-16T02:38:52.532Z,3.4
2024-03-16T02:39:55.846Z,2.5
2024-03-16T02:46:07.353Z,3.6
2024-03-16T02:50:17.904Z,2.8
2024-03-16T02:56:29.240Z,2.3
2024-03-16T03:02:43.558Z,2.6
2024-03-16T03:04:47.406Z,2.2
2024-03-16T03:15:06.567Z,1.2
2024-03-16T03:17:13.221Z,1.5
2024-03-16T03:21:20.880Z,1.5
2024-03-16T03:23:24.717Z,0.6
2024-03-16T03:25:28.532Z,1
2024-03-16T03:29:36.187Z,1.2
2024-03-16T03:31:42.836Z,0.8
2024-03-16T03:33:46.687Z,1
2024-03-16T03:35:50.478Z,1
2024-03-16T03:40:18.057Z,0.4
2024-03-16T03:46:32.326Z,0.4
2024-03-16T03:48:36.132Z,0.8
2024-03-16T03:52:43.746Z,0.6
2024-03-16T03:54:47.646Z,0.3
2024-03-16T03:58:57.982Z,0.5
2024-03-16T04:01:01.970Z,0.4
2024-03-16T04:09:17.066Z,0.7
2024-03-16T04:13:27.468Z,0.6
2024-03-16T04:17:35.159Z,0.2
2024-03-16T04:19:38.872Z,0.3
2024-03-16T04:23:46.493Z,0.7
2024-03-16T04:35:11.615Z,0.6
2024-03-16T04:41:25.828Z,1.4
2024-03-16T04:43:29.617Z,1.3
2024-03-16T04:47:37.229Z,0.5
2024-03-16T04:49:40.997Z,0.6
2024-03-16T04:53:48.584Z,0.8
2024-03-16T04:55:55.186Z,0.9
2024-03-16T04:57:59.050Z,0.6
2024-03-16T05:00:02.805Z,0.5
2024-03-16T05:06:14.125Z,1
2024-03-16T05:10:24.589Z,0.7
2024-03-16T05:12:29.881Z,0.6
2024-03-16T05:14:33.558Z,0.4
2024-03-16T05:16:37.353Z,1
2024-03-16T05:18:41.178Z,0.3
2024-03-16T05:20:44.907Z,0.5
2024-03-16T05:29:02.897Z,0.7
2024-03-16T05:30:06.200Z,0.3
2024-03-16T05:36:17.570Z,0.5
2024-03-16T05:52:53.515Z,0.3
2024-03-16T06:01:08.701Z,0.6
2024-03-16T06:03:12.401Z,0.6
2024-03-16T06:05:16.196Z,1
2024-03-16T06:11:30.391Z,0.3
2024-03-16T06:13:34.135Z,0.4
2024-03-16T06:23:55.826Z,0.6
2024-03-16T06:25:59.601Z,0.4
2024-03-16T06:27:02.905Z,0.5
2024-03-16T06:29:06.952Z,0.9
2024-03-16T06:31:10.511Z,0.9
2024-03-16T06:37:24.697Z,0.7
2024-03-16T06:41:32.189Z,0.6
2024-03-16T06:43:35.970Z,0.1
2024-03-16T06:47:43.610Z,1.5
2024-03-16T06:49:50.123Z,0.4
2024-03-16T06:53:57.692Z,0.4
2024-03-16T06:56:01.447Z,0.2
2024-03-16T07:06:23.162Z,0.5
2024-03-16T07:12:34.522Z,1.1
2024-03-16T07:16:42.007Z,0.5
2024-03-16T07:18:48.658Z,0.5
2024-03-16T07:25:25.661Z,0.7
2024-03-16T07:27:29.461Z,0.4
2024-03-16T07:29:33.241Z,0.6
2024-03-16T07:31:39.811Z,0.3
2024-03-16T07:33:43.612Z,0.6
2024-03-16T07:37:51.158Z,0.7
2024-03-16T07:44:02.487Z,0.6
2024-03-16T07:46:09.152Z,0.4
2024-03-16T07:50:16.668Z,0.5
2024-03-16T07:54:24.265Z,0.7
2024-03-16T07:56:28.044Z,0.5
2024-03-16T08:08:53.635Z,0.5
2024-03-16T08:10:57.426Z,0.5
2024-03-16T08:19:15.559Z,0.8
2024-03-16T08:20:18.799Z,0.5
2024-03-16T08:22:22.689Z,0.2
2024-03-16T08:51:22.334Z,0.5
2024-03-16T08:57:36.725Z,1.1
2024-03-16T09:01:44.399Z,0.9
2024-03-16T09:03:48.132Z,0.3
2024-03-16T09:05:51.937Z,0.7
2024-03-16T09:19:21.116Z,0.6
2024-03-16T09:21:24.888Z,0.3
2024-03-16T09:29:43.038Z,0.7
2024-03-16T09:31:46.864Z,0.5
2024-03-16T09:33:50.735Z,2
2024-03-16T09:40:05.066Z,0.3
2024-03-16T09:42:08.876Z,0.4
2024-03-16T09:52:28.047Z,0.2
2024-03-16T09:54:34.737Z,0.2
2024-03-16T09:56:38.553Z,0.4
2024-03-16T09:58:42.405Z,0.5
2024-03-16T10:02:50.070Z,0.4
2024-03-16T10:04:53.909Z,0.1
2024-03-16T10:09:04.428Z,0.2
2024-03-16T10:11:08.295Z,0.4
2024-03-16T10:14:15.449Z,0.3
2024-03-16T10:24:37.545Z,0.5
2024-03-16T10:26:41.351Z,0.6
2024-03-16T10:30:49.068Z,0.5
2024-03-16T10:39:07.225Z,0.6
2024-03-16T10:41:11.095Z,0.4
2024-03-16T10:45:18.789Z,0.8
2024-03-16T10:47:22.620Z,0.4
2024-03-16T10:51:33.153Z,0.5
2024-03-16T11:18:56.758Z,0.8
2024-03-16T11:21:00.551Z,0.6
2024-03-16T11:23:04.409Z,0.6
2024-03-16T11:25:08.481Z,0.9
2024-03-16T11:35:30.484Z,0.1
2024-03-16T11:37:34.228Z,0.4
2024-03-16T11:50:00.271Z,1
2024-03-16T11:54:07.900Z,0.6
2024-03-16T11:56:11.742Z,0.6
2024-03-16T12:00:19.474Z,0.9
2024-03-16T12:07:37.217Z,0.6
2024-03-16T12:09:41.073Z,0.6
2024-03-16T12:11:44.934Z,0.6
2024-03-16T12:13:48.791Z,0.5
2024-03-16T12:20:03.200Z,0.3
2024-03-16T12:24:10.934Z,0.6
2024-03-16T12:30:25.347Z,0.8
2024-03-16T12:36:36.937Z,0.7
2024-03-16T12:42:48.542Z,0.8
2024-03-16T12:44:55.219Z,0.5
2024-03-16T12:49:02.982Z,0.7
2024-03-16T12:51:06.852Z,1
2024-03-16T12:53:10.721Z,0.5
2024-03-16T12:55:14.598Z,0.2
2024-03-16T13:01:29.048Z,0.6
2024-03-16T13:14:58.420Z,0.3
2024-03-16T13:25:19.886Z,0.2
2024-03-16T13:27:24.468Z,0.3
2024-03-16T13:50:10.692Z,0.2
2024-03-16T13:56:25.748Z,0.6
2024-03-16T13:58:29.590Z,0.6
2024-03-16T14:00:33.463Z,0.3
2024-03-16T14:05:44.539Z,0.1
2024-03-16T14:07:48.391Z,0.1
2024-03-16T14:09:55.094Z,0.2
2024-03-16T14:14:02.836Z,0.3
2024-03-16T14:26:29.004Z,0.6
2024-03-16T14:28:32.876Z,0.4
2024-03-16T14:32:40.590Z,0.2
2024-03-16T14:34:45.953Z,0.4
2024-03-16T14:38:55.018Z,0.4
2024-03-16T14:49:14.349Z,0.1
2024-03-16T14:51:18.247Z,0.3
2024-03-16T14:55:28.774Z,0.7
2024-03-16T15:00:02.395Z,1
2024-03-16T15:02:06.112Z,0.7
2024-03-16T15:04:09.975Z,0.5
2024-03-16T15:06:16.668Z,0.6
2024-03-16T15:08:20.508Z,0.5
2024-03-16T15:12:28.252Z,0.2
2024-03-16T15:14:32.127Z,0.3
2024-03-16T15:16:35.987Z,0.4
2024-03-16T15:22:50.393Z,0.8
2024-03-16T15:29:01.973Z,0.1
2024-03-16T15:41:27.924Z,0.5
2024-03-16T15:43:31.799Z,0.5
2024-03-16T15:47:39.508Z,0.9
2024-03-16T15:54:57.184Z,0.9
2024-03-16T15:57:01.041Z,0.4
2024-03-16T15:59:04.889Z,0.7
2024-03-16T16:11:30.790Z,0.3
2024-03-16T16:17:45.170Z,0.5
2024-03-16T16:21:52.854Z,0.1
2024-03-16T16:23:56.693Z,0.8
2024-03-16T16:28:04.391Z,0.4
2024-03-16T16:30:09.684Z,0.5
2024-03-16T16:34:18.727Z,0.5
2024-03-16T16:42:34.097Z,0.7
2024-03-16T16:46:44.612Z,0.3
2024-03-16T16:48:48.487Z,0.3
2024-03-16T16:51:55.605Z,0.8
2024-03-16T16:53:59.452Z,1.4
2024-03-16T17:06:26.799Z,1.3
2024-03-16T17:27:12.785Z,0.6
2024-03-16T17:29:14.522Z,1
2024-03-16T17:31:18.366Z,0.8
2024-03-16T17:35:26.029Z,1.9
2024-03-16T17:37:29.830Z,1.6
2024-03-16T17:39:33.726Z,1.6
2024-03-16T17:41:37.491Z,0.5
2024-03-16T17:43:44.133Z,0.5
2024-03-16T17:48:55.076Z,1.1
2024-03-16T17:50:58.894Z,0.9
2024-03-16T17:53:02.728Z,0.6
2024-03-16T17:55:06.533Z,0.9
2024-03-16T18:01:20.818Z,1.3
2024-03-16T18:07:32.261Z,2.4
2024-03-16T18:15:50.325Z,0.4
2024-03-16T18:18:01.114Z,0.6
2024-03-16T18:19:57.888Z,0.9
2024-03-16T18:24:05.496Z,0.8
2024-03-16T18:30:19.733Z,1
2024-03-16T18:32:23.517Z,1.4
2024-03-16T18:34:27.302Z,1.5
2024-03-16T18:36:31.110Z,1.5
2024-03-16T18:40:41.513Z,2.4
2024-03-16T18:49:22.470Z,2.1
2024-03-16T18:51:26.272Z,0.9
2024-03-16T18:53:32.901Z,1.2
2024-03-16T18:55:36.688Z,0.9
2024-03-16T19:08:02.249Z,1.6
2024-03-16T19:10:06.055Z,0.9
2024-03-16T19:12:09.820Z,1.1
2024-03-16T19:14:13.596Z,1.6
2024-03-16T19:16:17.389Z,1.2
2024-03-16T19:20:24.957Z,1.1
2024-03-16T19:22:31.559Z,1.1
2024-03-16T19:26:39.120Z,1.5
2024-03-16T19:39:04.593Z,1.7
2024-03-16T19:44:15.432Z,0.9
2024-03-16T19:46:19.175Z,0.8
2024-03-16T19:50:29.518Z,2.8
2024-03-16T19:52:33.293Z,1.7
2024-03-16T19:56:40.832Z,1.5
2024-03-16T20:02:52.094Z,1.3
2024-03-16T20:04:58.712Z,1.9
2024-03-16T20:09:06.193Z,1.8
2024-03-16T20:11:09.934Z,2.2
2024-03-16T20:15:17.437Z,3.6
2024-03-16T20:17:21.181Z,2.9
2024-03-16T20:19:27.750Z,5.1
2024-03-16T20:21:31.492Z,4.6
2024-03-16T20:23:35.282Z,5.6
2024-03-16T20:25:39.046Z,4.2
2024-03-16T20:27:42.895Z,3.6
2024-03-16T20:33:57.044Z,6.2
2024-03-16T20:45:19.345Z,7.1
2024-03-16T21:03:58.533Z,7
2024-03-16T21:08:05.986Z,6.4
2024-03-16T21:10:09.702Z,5.8
2024-03-16T21:12:13.431Z,8.5
2024-03-16T21:14:17.247Z,10.4
2024-03-16T21:16:23.781Z,6.6
2024-03-16T21:24:40.796Z,33.9
2024-03-16T21:28:46.094Z,14.1
2024-03-16T21:30:52.652Z,6
2024-03-16T21:32:56.350Z,7.6
2024-03-16T21:40:10.974Z,5.9
2024-03-16T21:44:23.800Z,10.8
2024-03-16T21:50:32.437Z,5
2024-03-16T21:56:43.559Z,6.7
2024-03-16T21:58:50.102Z,4.6
2024-03-16T22:00:53.805Z,3.7
2024-03-16T22:05:01.219Z,4.2
2024-03-16T22:07:04.895Z,5.7
2024-03-16T22:09:08.613Z,15.2
2024-03-16T22:15:22.529Z,12.6
2024-03-16T22:17:26.205Z,5.5
2024-03-16T22:21:33.585Z,4.3
2024-03-16T22:23:37.285Z,4.1
2024-03-16T22:27:47.480Z,3.1
2024-03-16T22:29:51.190Z,3
2024-03-16T22:31:54.874Z,3.3
2024-03-16T22:36:28.099Z,5.7
2024-03-16T22:48:53.195Z,3
2024-03-16T23:05:27.005Z,2.3
2024-03-16T23:07:30.664Z,3.8
2024-03-16T23:11:40.850Z,5.5
2024-03-16T23:17:51.856Z,10.2
2024-03-16T23:21:59.251Z,15.8
2024-03-16T23:24:05.673Z,3.1
2024-03-16T23:35:27.261Z,4.8
2024-03-16T23:39:37.431Z,8.3
2024-03-16T23:43:44.767Z,2.9
2024-03-16T23:47:52.106Z,9.3
2024-03-16T23:54:05.889Z,2
2024-03-16T23:56:09.581Z,2.3
